createdAt,value
2022-11-24T00:14:04.135Z,1008.54
2022-11-24T00:23:40.914Z,1008.67
2022-11-24T00:33:17.602Z,1008.66
2022-11-24T00:42:54.641Z,1008.68
2022-11-24T00:52:31.370Z,1008.76
2022-11-24T01:02:08.494Z,1008.86
2022-11-24T01:11:44.881Z,1008.93
2022-11-24T01:21:21.661Z,1009.14
2022-11-24T01:30:58.369Z,1009.29
2022-11-24T01:40:35.152Z,1009.37
2022-11-24T01:50:12.306Z,1009.4
2022-11-24T01:59:49.305Z,1009.51
2022-11-24T02:09:26.501Z,1009.59
2022-11-24T02:19:03.185Z,1009.69
2022-11-24T02:28:40.009Z,1009.75
2022-11-24T02:38:16.954Z,1009.72
2022-11-24T02:47:53.807Z,1009.76
2022-11-24T02:57:30.285Z,1009.84
2022-11-24T03:07:07.027Z,1009.77
2022-11-24T03:16:43.789Z,1009.85
2022-11-24T03:26:20.489Z,1009.84
2022-11-24T03:35:57.253Z,1009.91
2022-11-24T03:45:49.054Z,1010.08
2022-11-24T03:55:10.436Z,1010.16
2022-11-24T04:04:49.674Z,1010.25
2022-11-24T04:14:24.096Z,1010.3
2022-11-24T04:24:00.702Z,1010.45
2022-11-24T04:33:37.586Z,1010.45
2022-11-24T04:43:14.657Z,1010.79
2022-11-24T04:52:51.701Z,1010.83
2022-11-24T05:02:28.541Z,1010.86
2022-11-24T05:12:05.354Z,1010.94
2022-11-24T05:21:41.964Z,1011.1
2022-11-24T05:31:19.208Z,1011.24
2022-11-24T05:40:56.190Z,1011.21
2022-11-24T06:00:09.338Z,1011.35
2022-11-24T06:09:45.893Z,1011.41
2022-11-24T06:19:22.587Z,1011.57
2022-11-24T06:28:59.287Z,1011.68
2022-11-24T06:38:36.274Z,1011.74
2022-11-24T06:48:13.136Z,1011.76
2022-11-24T06:57:49.901Z,1011.89
2022-11-24T07:07:26.963Z,1011.89
2022-11-24T07:17:03.657Z,1011.97
2022-11-24T07:36:18.660Z,1012.19
2022-11-24T07:45:55.891Z,1012.36
2022-11-24T08:05:11.495Z,1012.32
2022-11-24T08:14:48.591Z,1012.48
2022-11-24T08:24:26.317Z,1012.49
2022-11-24T08:34:03.968Z,1012.47
2022-11-24T08:43:40.977Z,1012.44
2022-11-24T08:53:19.407Z,1012.34
2022-11-24T09:02:58.525Z,1012.54
2022-11-24T09:12:33.057Z,1012.59
2022-11-24T09:22:10.976Z,1012.68
2022-11-24T09:31:48.682Z,1012.68
2022-11-24T09:41:26.011Z,1012.7
2022-11-24T09:51:01.972Z,1012.65
2022-11-24T10:00:39.173Z,1012.69
2022-11-24T10:10:24.426Z,1012.72
2022-11-24T10:19:56.829Z,1012.73
2022-11-24T10:29:34.585Z,1012.69
2022-11-24T10:39:12.970Z,1012.78
2022-11-24T10:48:50.360Z,1012.73
2022-11-24T10:58:26.534Z,1012.69
2022-11-24T11:08:05.684Z,1012.72
2022-11-24T11:17:41.237Z,1012.68
2022-11-24T11:27:18.020Z,1012.72
2022-11-24T11:36:55.681Z,1012.72
2022-11-24T11:46:32.974Z,1012.78
2022-11-24T11:56:09.744Z,1012.83
2022-11-24T12:05:47.745Z,1012.86
2022-11-24T12:15:27.837Z,1012.83
2022-11-24T12:25:06.602Z,1012.88
2022-11-24T12:34:44.265Z,1012.96
2022-11-24T12:44:21.738Z,1012.97
2022-11-24T12:53:56.889Z,1013.08
2022-11-24T13:03:32.488Z,1013.14
2022-11-24T13:13:08.376Z,1013.13
2022-11-24T13:22:45.245Z,1013.33
2022-11-24T13:32:22.409Z,1013.45
2022-11-24T13:41:59.239Z,1013.61
2022-11-24T13:51:37.172Z,1013.68
2022-11-24T14:01:14.033Z,1013.79
2022-11-24T14:10:49.721Z,1013.83
2022-11-24T14:20:26.132Z,1013.99
2022-11-24T14:30:02.694Z,1014.02
2022-11-24T14:39:39.824Z,1013.97
2022-11-24T14:49:16.903Z,1014.09
2022-11-24T14:58:53.619Z,1014.38
2022-11-24T15:08:30.313Z,1014.5
2022-11-24T15:18:07.214Z,1014.58
2022-11-24T15:27:44.242Z,1014.64
2022-11-24T15:37:21.262Z,1014.75
2022-11-24T15:46:57.994Z,1014.8
2022-11-24T15:56:34.512Z,1014.94
2022-11-24T16:06:10.910Z,1014.98
2022-11-24T16:15:47.286Z,1015.17
2022-11-24T16:25:23.788Z,1015.36
2022-11-24T16:35:00.371Z,1015.38
2022-11-24T16:44:37.392Z,1015.34
2022-11-24T16:54:13.950Z,1015.38
2022-11-24T17:03:50.951Z,1015.46
2022-11-24T17:13:28.057Z,1015.56
2022-11-24T17:23:05.150Z,1015.62
2022-11-24T17:32:41.786Z,1015.66
2022-11-24T17:42:18.800Z,1015.74
2022-11-24T17:51:55.885Z,1015.79
2022-11-24T18:01:32.842Z,1015.86
2022-11-24T18:11:09.616Z,1015.99
2022-11-24T18:20:46.508Z,1016.09
2022-11-24T18:30:23.501Z,1016.16
2022-11-24T18:40:00.216Z,1016.13
2022-11-24T18:49:37.371Z,1016.2
2022-11-24T18:59:14.296Z,1016.29
2022-11-24T19:08:51.073Z,1016.24
2022-11-24T19:28:04.537Z,1016.34
2022-11-24T19:37:40.969Z,1016.35
2022-11-24T19:47:17.193Z,1016.45
2022-11-24T19:56:53.925Z,1016.64
2022-11-24T20:06:30.786Z,1016.74
2022-11-24T20:16:07.754Z,1016.79
2022-11-24T20:25:44.430Z,1016.88
2022-11-24T20:35:21.584Z,1016.91
2022-11-24T20:44:58.185Z,1016.94
2022-11-24T21:04:12.348Z,1016.87
2022-11-24T21:13:49.259Z,1016.94
2022-11-24T21:23:26.084Z,1016.96
2022-11-24T21:33:03.006Z,1016.92
2022-11-24T21:42:39.776Z,1016.96
2022-11-24T21:52:16.082Z,1017.04
2022-11-24T22:01:53.006Z,1017.05
2022-11-24T22:11:30.065Z,1017.04
2022-11-24T22:21:06.955Z,1017.25
2022-11-24T22:49:55.702Z,1017.51
2022-11-24T22:59:32.068Z,1017.52
2022-11-24T23:09:08.489Z,1017.61
2022-11-24T23:18:47.034Z,1017.73
2022-11-24T23:28:21.228Z,1017.75
2022-11-24T23:38:07.250Z,1017.8
2022-11-24T23:47:33.758Z,1017.75
2022-11-24T23:57:10.348Z,1017.73
